Keystone, Nebraska
Current Conditions -  °F | °C
As of 4:55 PM on Monday 22 Dec 2014 (Local Time) from KOGA Reporting Station
Clear Clear  
Wind Chill: 26°   Ceiling: Unl
Heat Index: 37°   Visibility: 10mi
Dew Point: 26°   Wind: 21mph
Humidity: 64%   Direction: 300°WNW
Pressure: 29.59"   Gusts: 28mph
Location:  41.22°N, 101.58°W
Report Text: KOGA 222355Z AUTO 30018G24KT 10SM CLR 03/M03 A2959 RMK AO2 T00281035 10067 20027
Loading
Personal Weather Stations






























Interactive Weather Map New forecast layout! Learn more

10-Day Weather Forecast

Advertisements
Track Severe Weather on mobile